sensor_id;sensor_type;location;lat;lon;timestamp;temperature;humidity
56478;DHT22;42382;53.210;5.772;2022-12-10T00:01:25;1.30;95.60
56478;DHT22;42382;53.210;5.772;2022-12-10T00:03:51;1.40;95.60
56478;DHT22;42382;53.210;5.772;2022-12-10T00:06:19;1.30;95.60
56478;DHT22;42382;53.210;5.772;2022-12-10T00:08:45;1.40;95.70
56478;DHT22;42382;53.210;5.772;2022-12-10T00:11:13;1.40;95.70
56478;DHT22;42382;53.210;5.772;2022-12-10T00:13:39;1.40;95.70
56478;DHT22;42382;53.210;5.772;2022-12-10T00:16:07;1.50;95.60
56478;DHT22;42382;53.210;5.772;2022-12-10T00:18:33;1.40;95.50
56478;DHT22;42382;53.210;5.772;2022-12-10T00:21:03;1.40;95.60
56478;DHT22;42382;53.210;5.772;2022-12-10T00:23:28;1.40;95.60
56478;DHT22;42382;53.210;5.772;2022-12-10T00:26:08;1.40;95.60
56478;DHT22;42382;53.210;5.772;2022-12-10T00:28:34;1.40;95.60
56478;DHT22;42382;53.210;5.772;2022-12-10T00:31:05;1.40;95.60
56478;DHT22;42382;53.210;5.772;2022-12-10T00:33:31;1.40;95.60
56478;DHT22;42382;53.210;5.772;2022-12-10T00:36:02;1.50;95.70
56478;DHT22;42382;53.210;5.772;2022-12-10T00:38:28;1.50;95.70
56478;DHT22;42382;53.210;5.772;2022-12-10T00:40:54;1.50;95.70
56478;DHT22;42382;53.210;5.772;2022-12-10T00:43:19;1.60;95.80
56478;DHT22;42382;53.210;5.772;2022-12-10T00:45:45;1.50;95.60
56478;DHT22;42382;53.210;5.772;2022-12-10T00:48:10;1.60;95.60
56478;DHT22;42382;53.210;5.772;2022-12-10T00:50:36;1.60;95.60
56478;DHT22;42382;53.210;5.772;2022-12-10T00:53:01;1.60;95.60
56478;DHT22;42382;53.210;5.772;2022-12-10T00:55:27;1.60;95.60
56478;DHT22;42382;53.210;5.772;2022-12-10T00:57:52;1.60;95.70
56478;DHT22;42382;53.210;5.772;2022-12-10T01:00:18;1.60;95.70
56478;DHT22;42382;53.210;5.772;2022-12-10T01:02:44;1.60;95.70
56478;DHT22;42382;53.210;5.772;2022-12-10T01:05:09;1.60;95.60
56478;DHT22;42382;53.210;5.772;2022-12-10T01:07:35;1.60;95.50
56478;DHT22;42382;53.210;5.772;2022-12-10T01:10:01;1.60;95.60
56478;DHT22;42382;53.210;5.772;2022-12-10T01:12:27;1.50;95.60
56478;DHT22;42382;53.210;5.772;2022-12-10T01:14:52;1.50;95.50
56478;DHT22;42382;53.210;5.772;2022-12-10T01:17:18;1.50;95.60
56478;DHT22;42382;53.210;5.772;2022-12-10T01:19:43;1.50;95.50
56478;DHT22;42382;53.210;5.772;2022-12-10T01:22:09;1.50;95.50
56478;DHT22;42382;53.210;5.772;2022-12-10T01:24:35;1.40;95.50
56478;DHT22;42382;53.210;5.772;2022-12-10T01:27:00;1.30;95.50
56478;DHT22;42382;53.210;5.772;2022-12-10T01:29:26;1.40;95.50
56478;DHT22;42382;53.210;5.772;2022-12-10T01:31:54;1.30;95.50
56478;DHT22;42382;53.210;5.772;2022-12-10T01:34:21;1.30;95.50
56478;DHT22;42382;53.210;5.772;2022-12-10T01:36:50;1.30;95.50
56478;DHT22;42382;53.210;5.772;2022-12-10T01:39:18;1.20;95.60
56478;DHT22;42382;53.210;5.772;2022-12-10T01:41:56;1.20;95.50
56478;DHT22;42382;53.210;5.772;2022-12-10T01:46:51;1.20;95.50
56478;DHT22;42382;53.210;5.772;2022-12-10T01:51:44;1.10;95.50
56478;DHT22;42382;53.210;5.772;2022-12-10T01:54:18;1.10;95.50
56478;DHT22;42382;53.210;5.772;2022-12-10T01:56:46;1.10;95.50
56478;DHT22;42382;53.210;5.772;2022-12-10T01:59:13;1.10;95.50
56478;DHT22;42382;53.210;5.772;2022-12-10T02:04:34;0.90;95.40
56478;DHT22;42382;53.210;5.772;2022-12-10T02:07:28;1.00;95.50
56478;DHT22;42382;53.210;5.772;2022-12-10T02:10:28;0.90;95.50
56478;DHT22;42382;53.210;5.772;2022-12-10T02:15:31;0.80;95.40
56478;DHT22;42382;53.210;5.772;2022-12-10T02:18:14;0.70;95.30
56478;DHT22;42382;53.210;5.772;2022-12-10T02:20:48;0.70;95.30
56478;DHT22;42382;53.210;5.772;2022-12-10T02:23:27;0.70;95.40
56478;DHT22;42382;53.210;5.772;2022-12-10T02:31:18;0.70;95.40
56478;DHT22;42382;53.210;5.772;2022-12-10T02:33:50;0.70;95.30
56478;DHT22;42382;53.210;5.772;2022-12-10T02:36:17;0.60;95.30
56478;DHT22;42382;53.210;5.772;2022-12-10T02:38:44;0.60;95.30
56478;DHT22;42382;53.210;5.772;2022-12-10T02:41:31;0.60;95.20
56478;DHT22;42382;53.210;5.772;2022-12-10T02:43:59;0.60;95.30
56478;DHT22;42382;53.210;5.772;2022-12-10T02:46:28;0.60;95.30
56478;DHT22;42382;53.210;5.772;2022-12-10T02:48:55;0.60;95.30
56478;DHT22;42382;53.210;5.772;2022-12-10T02:51:21;0.60;95.30
56478;DHT22;42382;53.210;5.772;2022-12-10T02:53:47;0.70;95.40
56478;DHT22;42382;53.210;5.772;2022-12-10T02:56:20;0.60;95.40
56478;DHT22;42382;53.210;5.772;2022-12-10T03:06:57;0.70;95.50
56478;DHT22;42382;53.210;5.772;2022-12-10T03:09:30;0.70;95.60
56478;DHT22;42382;53.210;5.772;2022-12-10T03:12:00;0.70;95.40
56478;DHT22;42382;53.210;5.772;2022-12-10T03:14:29;0.60;95.40
56478;DHT22;42382;53.210;5.772;2022-12-10T03:16:59;0.60;95.50
56478;DHT22;42382;53.210;5.772;2022-12-10T03:19:47;0.60;95.40
56478;DHT22;42382;53.210;5.772;2022-12-10T03:22:18;0.60;95.40
56478;DHT22;42382;53.210;5.772;2022-12-10T03:24:44;0.70;95.40
56478;DHT22;42382;53.210;5.772;2022-12-10T03:27:11;0.70;95.50
56478;DHT22;42382;53.210;5.772;2022-12-10T03:29:45;0.70;95.50
56478;DHT22;42382;53.210;5.772;2022-12-10T03:32:11;0.80;95.50
56478;DHT22;42382;53.210;5.772;2022-12-10T03:34:38;0.80;95.50
56478;DHT22;42382;53.210;5.772;2022-12-10T03:37:05;0.80;95.50
56478;DHT22;42382;53.210;5.772;2022-12-10T03:39:32;0.80;95.50
56478;DHT22;42382;53.210;5.772;2022-12-10T03:41:58;0.80;95.50
56478;DHT22;42382;53.210;5.772;2022-12-10T03:44:31;0.80;95.50
56478;DHT22;42382;53.210;5.772;2022-12-10T03:46:57;0.80;95.50
56478;DHT22;42382;53.210;5.772;2022-12-10T03:49:23;0.80;95.50
56478;DHT22;42382;53.210;5.772;2022-12-10T03:51:49;0.80;95.50
56478;DHT22;42382;53.210;5.772;2022-12-10T03:54:15;0.90;95.50
56478;DHT22;42382;53.210;5.772;2022-12-10T03:56:40;0.90;95.50
56478;DHT22;42382;53.210;5.772;2022-12-10T03:59:06;0.90;95.50
56478;DHT22;42382;53.210;5.772;2022-12-10T04:01:32;0.90;95.50
56478;DHT22;42382;53.210;5.772;2022-12-10T04:04:00;0.90;95.50
56478;DHT22;42382;53.210;5.772;2022-12-10T04:06:26;0.90;95.50
56478;DHT22;42382;53.210;5.772;2022-12-10T04:08:52;1.00;95.50
56478;DHT22;42382;53.210;5.772;2022-12-10T04:11:21;1.00;95.50
56478;DHT22;42382;53.210;5.772;2022-12-10T04:13:48;1.00;95.50
56478;DHT22;42382;53.210;5.772;2022-12-10T04:16:33;1.00;95.50
56478;DHT22;42382;53.210;5.772;2022-12-10T04:19:11;1.10;95.50
56478;DHT22;42382;53.210;5.772;2022-12-10T04:21:38;1.10;95.50
56478;DHT22;42382;53.210;5.772;2022-12-10T04:24:25;1.00;95.50
56478;DHT22;42382;53.210;5.772;2022-12-10T04:29:51;1.10;95.60
56478;DHT22;42382;53.210;5.772;2022-12-10T04:32:18;1.10;95.50
56478;DHT22;42382;53.210;5.772;2022-12-10T04:34:44;1.10;95.50
56478;DHT22;42382;53.210;5.772;2022-12-10T04:37:10;1.10;95.50
56478;DHT22;42382;53.210;5.772;2022-12-10T04:39:39;1.10;95.50
56478;DHT22;42382;53.210;5.772;2022-12-10T04:42:05;1.10;95.50
56478;DHT22;42382;53.210;5.772;2022-12-10T04:44:31;1.10;95.50
56478;DHT22;42382;53.210;5.772;2022-12-10T04:46:57;1.00;95.40
56478;DHT22;42382;53.210;5.772;2022-12-10T04:49:23;1.00;95.50
56478;DHT22;42382;53.210;5.772;2022-12-10T04:51:49;1.00;95.50
56478;DHT22;42382;53.210;5.772;2022-12-10T04:54:15;1.00;95.40
56478;DHT22;42382;53.210;5.772;2022-12-10T04:56:41;0.90;95.40
56478;DHT22;42382;53.210;5.772;2022-12-10T04:59:08;0.90;95.50
56478;DHT22;42382;53.210;5.772;2022-12-10T05:01:34;0.90;95.40
56478;DHT22;42382;53.210;5.772;2022-12-10T05:04:02;0.80;95.40
56478;DHT22;42382;53.210;5.772;2022-12-10T05:06:28;1.00;95.70
56478;DHT22;42382;53.210;5.772;2022-12-10T05:08:54;0.90;95.30
56478;DHT22;42382;53.210;5.772;2022-12-10T05:11:22;0.80;95.40
56478;DHT22;42382;53.210;5.772;2022-12-10T05:13:49;0.80;95.30
56478;DHT22;42382;53.210;5.772;2022-12-10T05:16:16;0.80;95.40
56478;DHT22;42382;53.210;5.772;2022-12-10T05:18:43;0.80;95.40
56478;DHT22;42382;53.210;5.772;2022-12-10T05:21:14;0.80;95.40
56478;DHT22;42382;53.210;5.772;2022-12-10T05:23:45;0.80;95.60
56478;DHT22;42382;53.210;5.772;2022-12-10T05:26:12;0.80;95.50
56478;DHT22;42382;53.210;5.772;2022-12-10T05:28:43;0.80;95.60
56478;DHT22;42382;53.210;5.772;2022-12-10T05:31:23;0.90;95.70
56478;DHT22;42382;53.210;5.772;2022-12-10T05:33:50;0.80;95.60
56478;DHT22;42382;53.210;5.772;2022-12-10T05:36:18;0.80;95.60
56478;DHT22;42382;53.210;5.772;2022-12-10T05:38:44;0.80;95.60
56478;DHT22;42382;53.210;5.772;2022-12-10T05:41:15;0.80;95.60
56478;DHT22;42382;53.210;5.772;2022-12-10T05:43:42;0.90;95.90
56478;DHT22;42382;53.210;5.772;2022-12-10T05:46:14;0.80;95.60
56478;DHT22;42382;53.210;5.772;2022-12-10T05:48:40;0.80;95.70
56478;DHT22;42382;53.210;5.772;2022-12-10T05:51:12;0.80;95.60
56478;DHT22;42382;53.210;5.772;2022-12-10T05:53:38;0.70;95.70
56478;DHT22;42382;53.210;5.772;2022-12-10T05:56:07;0.70;95.70
56478;DHT22;42382;53.210;5.772;2022-12-10T05:58:33;0.80;95.60
56478;DHT22;42382;53.210;5.772;2022-12-10T06:00:59;0.70;95.60
56478;DHT22;42382;53.210;5.772;2022-12-10T06:03:27;0.70;95.70
56478;DHT22;42382;53.210;5.772;2022-12-10T06:05:53;0.70;95.70
56478;DHT22;42382;53.210;5.772;2022-12-10T06:08:19;0.80;95.80
56478;DHT22;42382;53.210;5.772;2022-12-10T06:10:44;0.80;95.90
56478;DHT22;42382;53.210;5.772;2022-12-10T06:13:10;0.80;95.80
56478;DHT22;42382;53.210;5.772;2022-12-10T06:15:41;0.80;95.80
56478;DHT22;42382;53.210;5.772;2022-12-10T06:18:07;0.80;95.90
56478;DHT22;42382;53.210;5.772;2022-12-10T06:20:33;0.80;95.80
56478;DHT22;42382;53.210;5.772;2022-12-10T06:22:59;0.80;95.80
56478;DHT22;42382;53.210;5.772;2022-12-10T06:25:24;0.70;95.80
56478;DHT22;42382;53.210;5.772;2022-12-10T06:27:50;0.80;95.80
56478;DHT22;42382;53.210;5.772;2022-12-10T06:30:16;0.80;95.90
56478;DHT22;42382;53.210;5.772;2022-12-10T06:32:41;0.80;95.90
56478;DHT22;42382;53.210;5.772;2022-12-10T06:35:09;0.90;95.90
56478;DHT22;42382;53.210;5.772;2022-12-10T06:37:34;0.80;95.90
56478;DHT22;42382;53.210;5.772;2022-12-10T06:40:00;0.90;95.90
56478;DHT22;42382;53.210;5.772;2022-12-10T06:42:26;0.90;96.00
56478;DHT22;42382;53.210;5.772;2022-12-10T06:44:51;0.90;95.90
56478;DHT22;42382;53.210;5.772;2022-12-10T06:47:17;0.90;95.90
56478;DHT22;42382;53.210;5.772;2022-12-10T06:49:43;0.90;95.80
56478;DHT22;42382;53.210;5.772;2022-12-10T06:52:08;0.90;95.90
56478;DHT22;42382;53.210;5.772;2022-12-10T06:54:34;0.90;96.00
56478;DHT22;42382;53.210;5.772;2022-12-10T06:56:59;1.00;96.00
56478;DHT22;42382;53.210;5.772;2022-12-10T06:59:25;0.90;95.90
56478;DHT22;42382;53.210;5.772;2022-12-10T07:01:51;0.90;95.90
56478;DHT22;42382;53.210;5.772;2022-12-10T07:04:16;0.90;95.90
56478;DHT22;42382;53.210;5.772;2022-12-10T07:06:42;1.00;96.00
56478;DHT22;42382;53.210;5.772;2022-12-10T07:09:08;0.90;95.90
56478;DHT22;42382;53.210;5.772;2022-12-10T07:11:35;0.90;96.00
56478;DHT22;42382;53.210;5.772;2022-12-10T07:14:02;0.90;96.00
56478;DHT22;42382;53.210;5.772;2022-12-10T07:16:30;0.80;95.80
56478;DHT22;42382;53.210;5.772;2022-12-10T07:18:57;0.80;95.80
56478;DHT22;42382;53.210;5.772;2022-12-10T07:21:26;0.90;95.90
56478;DHT22;42382;53.210;5.772;2022-12-10T07:23:53;0.80;95.90
56478;DHT22;42382;53.210;5.772;2022-12-10T07:26:21;0.90;96.00
56478;DHT22;42382;53.210;5.772;2022-12-10T07:28:46;0.90;96.00
56478;DHT22;42382;53.210;5.772;2022-12-10T07:31:12;1.00;96.00
56478;DHT22;42382;53.210;5.772;2022-12-10T07:33:37;0.90;96.00
56478;DHT22;42382;53.210;5.772;2022-12-10T07:36:10;1.00;96.10
56478;DHT22;42382;53.210;5.772;2022-12-10T07:38:37;0.90;96.00
56478;DHT22;42382;53.210;5.772;2022-12-10T07:41:04;1.00;95.90
56478;DHT22;42382;53.210;5.772;2022-12-10T07:43:32;0.90;96.00
56478;DHT22;42382;53.210;5.772;2022-12-10T07:46:12;1.00;96.00
56478;DHT22;42382;53.210;5.772;2022-12-10T07:48:40;1.00;96.00
56478;DHT22;42382;53.210;5.772;2022-12-10T07:51:06;1.00;96.00
56478;DHT22;42382;53.210;5.772;2022-12-10T07:53:32;1.00;96.10
56478;DHT22;42382;53.210;5.772;2022-12-10T07:55:58;0.90;96.00
56478;DHT22;42382;53.210;5.772;2022-12-10T07:58:24;1.00;96.00
56478;DHT22;42382;53.210;5.772;2022-12-10T08:00:49;1.00;95.90
56478;DHT22;42382;53.210;5.772;2022-12-10T08:03:15;0.90;95.90
56478;DHT22;42382;53.210;5.772;2022-12-10T08:05:41;1.00;96.00
56478;DHT22;42382;53.210;5.772;2022-12-10T08:08:07;1.00;96.00
56478;DHT22;42382;53.210;5.772;2022-12-10T08:10:39;1.00;96.00
56478;DHT22;42382;53.210;5.772;2022-12-10T08:13:05;1.00;96.00
56478;DHT22;42382;53.210;5.772;2022-12-10T08:15:32;1.00;96.00
56478;DHT22;42382;53.210;5.772;2022-12-10T08:17:57;1.00;95.90
56478;DHT22;42382;53.210;5.772;2022-12-10T08:20:23;1.00;96.00
56478;DHT22;42382;53.210;5.772;2022-12-10T08:22:50;1.00;96.00
56478;DHT22;42382;53.210;5.772;2022-12-10T08:25:15;1.00;96.00
56478;DHT22;42382;53.210;5.772;2022-12-10T08:27:41;1.00;96.00
56478;DHT22;42382;53.210;5.772;2022-12-10T08:30:07;1.00;96.00
56478;DHT22;42382;53.210;5.772;2022-12-10T08:32:33;1.00;96.00
56478;DHT22;42382;53.210;5.772;2022-12-10T08:34:59;1.10;96.10
56478;DHT22;42382;53.210;5.772;2022-12-10T08:37:24;1.10;96.20
56478;DHT22;42382;53.210;5.772;2022-12-10T08:39:50;1.10;96.10
56478;DHT22;42382;53.210;5.772;2022-12-10T08:42:15;1.10;96.10
56478;DHT22;42382;53.210;5.772;2022-12-10T08:44:41;1.10;96.00
56478;DHT22;42382;53.210;5.772;2022-12-10T08:47:07;1.10;96.00
56478;DHT22;42382;53.210;5.772;2022-12-10T08:49:33;1.10;96.10
56478;DHT22;42382;53.210;5.772;2022-12-10T08:51:58;1.10;96.10
56478;DHT22;42382;53.210;5.772;2022-12-10T08:54:24;1.10;96.00
56478;DHT22;42382;53.210;5.772;2022-12-10T08:56:50;1.20;96.10
56478;DHT22;42382;53.210;5.772;2022-12-10T08:59:16;1.20;96.10
56478;DHT22;42382;53.210;5.772;2022-12-10T09:01:42;1.20;96.10
56478;DHT22;42382;53.210;5.772;2022-12-10T09:04:07;1.20;96.10
56478;DHT22;42382;53.210;5.772;2022-12-10T09:06:33;1.20;96.10
56478;DHT22;42382;53.210;5.772;2022-12-10T09:08:59;1.30;96.30
56478;DHT22;42382;53.210;5.772;2022-12-10T09:11:31;1.40;96.20
56478;DHT22;42382;53.210;5.772;2022-12-10T09:13:57;1.30;96.10
56478;DHT22;42382;53.210;5.772;2022-12-10T09:16:31;1.40;96.20
56478;DHT22;42382;53.210;5.772;2022-12-10T09:18:57;1.30;96.20
56478;DHT22;42382;53.210;5.772;2022-12-10T09:21:23;1.40;96.20
56478;DHT22;42382;53.210;5.772;2022-12-10T09:23:49;1.40;96.30
56478;DHT22;42382;53.210;5.772;2022-12-10T09:26:15;1.40;96.20
56478;DHT22;42382;53.210;5.772;2022-12-10T09:28:42;1.50;96.10
56478;DHT22;42382;53.210;5.772;2022-12-10T09:31:08;1.40;96.10
56478;DHT22;42382;53.210;5.772;2022-12-10T09:33:35;1.40;96.10
56478;DHT22;42382;53.210;5.772;2022-12-10T09:36:06;1.50;96.10
56478;DHT22;42382;53.210;5.772;2022-12-10T09:38:34;1.40;96.10
56478;DHT22;42382;53.210;5.772;2022-12-10T09:41:01;1.50;96.20
56478;DHT22;42382;53.210;5.772;2022-12-10T09:53:37;1.60;96.20
56478;DHT22;42382;53.210;5.772;2022-12-10T09:56:03;1.60;96.10
56478;DHT22;42382;53.210;5.772;2022-12-10T09:58:29;1.60;96.10
56478;DHT22;42382;53.210;5.772;2022-12-10T10:01:02;1.60;96.20
56478;DHT22;42382;53.210;5.772;2022-12-10T10:03:30;1.60;96.20
56478;DHT22;42382;53.210;5.772;2022-12-10T10:05:56;1.60;96.20
56478;DHT22;42382;53.210;5.772;2022-12-10T10:10:47;1.70;96.20
56478;DHT22;42382;53.210;5.772;2022-12-10T10:16:01;1.70;96.30
56478;DHT22;42382;53.210;5.772;2022-12-10T10:18:38;1.70;96.10
56478;DHT22;42382;53.210;5.772;2022-12-10T10:21:07;1.70;96.10
56478;DHT22;42382;53.210;5.772;2022-12-10T10:23:37;1.70;96.10
56478;DHT22;42382;53.210;5.772;2022-12-10T10:26:02;1.60;96.00
56478;DHT22;42382;53.210;5.772;2022-12-10T10:28:28;1.70;96.10
56478;DHT22;42382;53.210;5.772;2022-12-10T10:30:54;1.70;96.10
56478;DHT22;42382;53.210;5.772;2022-12-10T10:33:19;1.70;96.10
56478;DHT22;42382;53.210;5.772;2022-12-10T10:35:47;1.70;96.10
56478;DHT22;42382;53.210;5.772;2022-12-10T10:38:18;1.70;96.10
56478;DHT22;42382;53.210;5.772;2022-12-10T10:40:45;1.80;96.20
56478;DHT22;42382;53.210;5.772;2022-12-10T10:43:54;1.80;96.10
56478;DHT22;42382;53.210;5.772;2022-12-10T10:46:04;1.80;96.10
56478;DHT22;42382;53.210;5.772;2022-12-10T10:48:31;1.80;96.10
56478;DHT22;42382;53.210;5.772;2022-12-10T10:56:07;1.80;96.00
56478;DHT22;42382;53.210;5.772;2022-12-10T10:58:33;1.80;96.00
56478;DHT22;42382;53.210;5.772;2022-12-10T11:01:04;1.80;96.10
56478;DHT22;42382;53.210;5.772;2022-12-10T11:03:33;1.90;96.10
56478;DHT22;42382;53.210;5.772;2022-12-10T11:49:48;1.90;95.80
56478;DHT22;42382;53.210;5.772;2022-12-10T12:04:13;2.00;95.80
56478;DHT22;42382;53.210;5.772;2022-12-10T12:12:14;1.90;95.60
56478;DHT22;42382;53.210;5.772;2022-12-10T12:14:55;1.90;95.60
56478;DHT22;42382;53.210;5.772;2022-12-10T12:17:27;1.90;95.50
56478;DHT22;42382;53.210;5.772;2022-12-10T12:20:03;1.90;95.60
56478;DHT22;42382;53.210;5.772;2022-12-10T12:22:37;2.00;95.60
56478;DHT22;42382;53.210;5.772;2022-12-10T12:25:16;2.00;95.60
56478;DHT22;42382;53.210;5.772;2022-12-10T12:27:51;2.00;95.60
56478;DHT22;42382;53.210;5.772;2022-12-10T12:30:20;2.10;95.60
56478;DHT22;42382;53.210;5.772;2022-12-10T12:33:04;2.10;95.60
56478;DHT22;42382;53.210;5.772;2022-12-10T12:35:50;2.20;95.70
56478;DHT22;42382;53.210;5.772;2022-12-10T12:38:30;2.10;95.40
56478;DHT22;42382;53.210;5.772;2022-12-10T12:41:17;2.00;95.30
56478;DHT22;42382;53.210;5.772;2022-12-10T12:43:51;2.00;95.30
56478;DHT22;42382;53.210;5.772;2022-12-10T12:46:40;2.00;95.40
56478;DHT22;42382;53.210;5.772;2022-12-10T12:49:27;2.00;95.40
56478;DHT22;42382;53.210;5.772;2022-12-10T12:54:19;2.10;95.40
56478;DHT22;42382;53.210;5.772;2022-12-10T12:57:14;2.10;95.40
56478;DHT22;42382;53.210;5.772;2022-12-10T13:00:03;2.20;95.60
56478;DHT22;42382;53.210;5.772;2022-12-10T13:05:36;2.20;95.40
56478;DHT22;42382;53.210;5.772;2022-12-10T13:08:23;2.20;95.40
56478;DHT22;42382;53.210;5.772;2022-12-10T13:10:56;2.20;95.40
56478;DHT22;42382;53.210;5.772;2022-12-10T13:15:54;2.30;95.40
56478;DHT22;42382;53.210;5.772;2022-12-10T13:18:36;2.30;95.40
56478;DHT22;42382;53.210;5.772;2022-12-10T13:23:51;2.20;95.50
56478;DHT22;42382;53.210;5.772;2022-12-10T13:26:30;2.30;95.40
56478;DHT22;42382;53.210;5.772;2022-12-10T13:29:13;2.20;95.40
56478;DHT22;42382;53.210;5.772;2022-12-10T13:34:41;2.20;95.20
56478;DHT22;42382;53.210;5.772;2022-12-10T13:40:02;2.10;95.30
56478;DHT22;42382;53.210;5.772;2022-12-10T13:42:33;2.10;95.20
56478;DHT22;42382;53.210;5.772;2022-12-10T13:50:35;2.10;95.20
56478;DHT22;42382;53.210;5.772;2022-12-10T13:55:49;2.10;95.20
56478;DHT22;42382;53.210;5.772;2022-12-10T14:01:11;2.00;95.10
56478;DHT22;42382;53.210;5.772;2022-12-10T14:06:32;2.00;95.20
56478;DHT22;42382;53.210;5.772;2022-12-10T14:09:03;1.90;95.10
56478;DHT22;42382;53.210;5.772;2022-12-10T14:11:45;1.90;95.10
56478;DHT22;42382;53.210;5.772;2022-12-10T14:14:35;1.90;95.20
56478;DHT22;42382;53.210;5.772;2022-12-10T14:17:04;1.90;95.10
56478;DHT22;42382;53.210;5.772;2022-12-10T14:19:32;1.90;95.10
56478;DHT22;42382;53.210;5.772;2022-12-10T14:22:07;1.90;95.10
56478;DHT22;42382;53.210;5.772;2022-12-10T14:24:38;1.90;95.20
56478;DHT22;42382;53.210;5.772;2022-12-10T14:27:16;2.00;95.20
56478;DHT22;42382;53.210;5.772;2022-12-10T14:29:46;2.00;95.20
56478;DHT22;42382;53.210;5.772;2022-12-10T14:32:18;2.00;95.20
56478;DHT22;42382;53.210;5.772;2022-12-10T14:34:55;2.00;95.20
56478;DHT22;42382;53.210;5.772;2022-12-10T14:37:26;2.00;95.20
56478;DHT22;42382;53.210;5.772;2022-12-10T14:39:53;1.90;95.10
56478;DHT22;42382;53.210;5.772;2022-12-10T14:42:19;1.90;95.10
56478;DHT22;42382;53.210;5.772;2022-12-10T14:44:45;2.00;95.10
56478;DHT22;42382;53.210;5.772;2022-12-10T14:47:18;2.00;95.10
56478;DHT22;42382;53.210;5.772;2022-12-10T14:49:49;1.90;95.10
56478;DHT22;42382;53.210;5.772;2022-12-10T14:52:21;1.90;95.10
56478;DHT22;42382;53.210;5.772;2022-12-10T14:54:48;1.90;95.20
56478;DHT22;42382;53.210;5.772;2022-12-10T14:57:35;1.90;95.10
56478;DHT22;42382;53.210;5.772;2022-12-10T15:00:07;1.90;95.10
56478;DHT22;42382;53.210;5.772;2022-12-10T15:02:40;1.90;95.10
56478;DHT22;42382;53.210;5.772;2022-12-10T15:05:16;1.90;95.20
56478;DHT22;42382;53.210;5.772;2022-12-10T15:07:59;1.90;95.10
56478;DHT22;42382;53.210;5.772;2022-12-10T15:10:44;1.90;95.10
56478;DHT22;42382;53.210;5.772;2022-12-10T15:13:33;1.90;95.20
56478;DHT22;42382;53.210;5.772;2022-12-10T15:16:05;1.90;95.10
56478;DHT22;42382;53.210;5.772;2022-12-10T15:18:33;1.80;94.90
56478;DHT22;42382;53.210;5.772;2022-12-10T15:21:15;1.80;95.00
56478;DHT22;42382;53.210;5.772;2022-12-10T15:23:45;1.90;95.10
56478;DHT22;42382;53.210;5.772;2022-12-10T15:26:24;1.80;95.00
56478;DHT22;42382;53.210;5.772;2022-12-10T15:31:47;1.90;95.10
56478;DHT22;42382;53.210;5.772;2022-12-10T15:34:13;1.80;95.00
56478;DHT22;42382;53.210;5.772;2022-12-10T15:36:50;1.70;94.90
56478;DHT22;42382;53.210;5.772;2022-12-10T15:39:20;1.70;95.00
56478;DHT22;42382;53.210;5.772;2022-12-10T15:47:02;1.70;95.10
56478;DHT22;42382;53.210;5.772;2022-12-10T15:49:31;1.80;95.00
56478;DHT22;42382;53.210;5.772;2022-12-10T15:51:57;1.70;95.00
56478;DHT22;42382;53.210;5.772;2022-12-10T15:54:28;1.70;95.10
56478;DHT22;42382;53.210;5.772;2022-12-10T15:56:55;1.80;95.20
56478;DHT22;42382;53.210;5.772;2022-12-10T15:59:21;1.70;95.10
56478;DHT22;42382;53.210;5.772;2022-12-10T16:01:47;1.70;95.00
56478;DHT22;42382;53.210;5.772;2022-12-10T16:04:12;1.70;94.90
56478;DHT22;42382;53.210;5.772;2022-12-10T16:06:39;1.70;95.00
56478;DHT22;42382;53.210;5.772;2022-12-10T16:09:05;1.60;94.90
56478;DHT22;42382;53.210;5.772;2022-12-10T16:11:31;1.60;94.90
56478;DHT22;42382;53.210;5.772;2022-12-10T16:13:57;1.60;95.00
56478;DHT22;42382;53.210;5.772;2022-12-10T16:16:24;1.60;95.00
56478;DHT22;42382;53.210;5.772;2022-12-10T16:18:50;1.60;95.10
56478;DHT22;42382;53.210;5.772;2022-12-10T16:21:15;1.60;95.10
56478;DHT22;42382;53.210;5.772;2022-12-10T16:23:41;1.60;95.10
56478;DHT22;42382;53.210;5.772;2022-12-10T16:26:17;1.70;95.20
56478;DHT22;42382;53.210;5.772;2022-12-10T16:28:44;1.70;95.10
56478;DHT22;42382;53.210;5.772;2022-12-10T16:31:14;1.70;95.10
56478;DHT22;42382;53.210;5.772;2022-12-10T16:33:40;1.60;95.10
56478;DHT22;42382;53.210;5.772;2022-12-10T16:36:06;1.70;95.10
56478;DHT22;42382;53.210;5.772;2022-12-10T16:38:32;1.70;95.10
56478;DHT22;42382;53.210;5.772;2022-12-10T16:41:00;1.70;95.20
56478;DHT22;42382;53.210;5.772;2022-12-10T16:43:27;1.80;95.20
56478;DHT22;42382;53.210;5.772;2022-12-10T16:45:53;1.80;95.20
56478;DHT22;42382;53.210;5.772;2022-12-10T16:48:19;1.80;95.20
56478;DHT22;42382;53.210;5.772;2022-12-10T16:50:46;1.90;95.30
56478;DHT22;42382;53.210;5.772;2022-12-10T16:53:22;1.80;95.00
56478;DHT22;42382;53.210;5.772;2022-12-10T16:55:48;1.80;95.00
56478;DHT22;42382;53.210;5.772;2022-12-10T16:58:15;1.80;95.00
56478;DHT22;42382;53.210;5.772;2022-12-10T17:00:46;1.80;95.10
56478;DHT22;42382;53.210;5.772;2022-12-10T17:03:15;1.70;95.20
56478;DHT22;42382;53.210;5.772;2022-12-10T17:05:55;1.70;94.80
56478;DHT22;42382;53.210;5.772;2022-12-10T17:08:22;1.70;94.90
56478;DHT22;42382;53.210;5.772;2022-12-10T17:10:48;1.70;94.70
56478;DHT22;42382;53.210;5.772;2022-12-10T17:13:34;1.60;94.80
56478;DHT22;42382;53.210;5.772;2022-12-10T17:16:00;1.60;94.90
56478;DHT22;42382;53.210;5.772;2022-12-10T17:18:26;1.70;94.90
56478;DHT22;42382;53.210;5.772;2022-12-10T17:20:52;1.60;94.90
56478;DHT22;42382;53.210;5.772;2022-12-10T17:23:18;1.60;94.90
56478;DHT22;42382;53.210;5.772;2022-12-10T17:25:44;1.60;94.90
56478;DHT22;42382;53.210;5.772;2022-12-10T17:28:16;1.70;95.10
56478;DHT22;42382;53.210;5.772;2022-12-10T17:30:45;1.70;95.00
56478;DHT22;42382;53.210;5.772;2022-12-10T17:33:16;1.60;95.00
56478;DHT22;42382;53.210;5.772;2022-12-10T17:35:43;1.70;95.10
56478;DHT22;42382;53.210;5.772;2022-12-10T17:38:15;1.70;95.10
56478;DHT22;42382;53.210;5.772;2022-12-10T17:40:41;1.70;95.10
56478;DHT22;42382;53.210;5.772;2022-12-10T17:43:07;1.70;95.10
56478;DHT22;42382;53.210;5.772;2022-12-10T17:45:33;1.80;95.10
56478;DHT22;42382;53.210;5.772;2022-12-10T17:47:58;1.70;95.00
56478;DHT22;42382;53.210;5.772;2022-12-10T17:50:33;1.70;94.90
56478;DHT22;42382;53.210;5.772;2022-12-10T17:53:00;1.60;94.90
56478;DHT22;42382;53.210;5.772;2022-12-10T17:55:26;1.60;95.00
56478;DHT22;42382;53.210;5.772;2022-12-10T17:57:53;1.70;95.00
56478;DHT22;42382;53.210;5.772;2022-12-10T18:00:21;1.60;94.90
56478;DHT22;42382;53.210;5.772;2022-12-10T18:02:47;1.60;95.00
56478;DHT22;42382;53.210;5.772;2022-12-10T18:05:14;1.60;94.90
56478;DHT22;42382;53.210;5.772;2022-12-10T18:07:40;1.60;95.00
56478;DHT22;42382;53.210;5.772;2022-12-10T18:10:12;1.60;94.90
56478;DHT22;42382;53.210;5.772;2022-12-10T18:12:39;1.50;94.90
56478;DHT22;42382;53.210;5.772;2022-12-10T18:15:05;1.50;94.90
56478;DHT22;42382;53.210;5.772;2022-12-10T18:17:31;1.50;95.00
56478;DHT22;42382;53.210;5.772;2022-12-10T18:19:57;1.50;95.00
56478;DHT22;42382;53.210;5.772;2022-12-10T18:22:22;1.50;95.00
56478;DHT22;42382;53.210;5.772;2022-12-10T18:24:51;1.50;95.00